Time,TemperatureF,DewpointF,PressureIn,WindDirection,WindDirectionDegrees,WindSpeedMPH,WindSpeedGustMPH,Humidity,HourlyPrecipIn,Conditions,Clouds,dailyrainin,SolarRadiationWatts/m^2,SoftwareType,DateUTC
2013-07-11 00:03:00,48.0,46.0,29.94,South,181,0.0,0.0,92,0.00,,,0.00,0,weatherlink.com 1.10,2013-07-11 07:03:00,
2013-07-11 00:18:00,47.6,45.0,29.95,South,181,0.0,0.0,92,0.00,,,0.00,0,weatherlink.com 1.10,2013-07-11 07:18:00,
2013-07-11 00:33:00,47.7,46.0,29.94,South,181,0.0,0.0,92,0.00,,,0.00,0,weatherlink.com 1.10,2013-07-11 07:33:00,
2013-07-11 00:48:00,48.4,47.0,29.94,South,181,0.0,0.0,93,0.00,,,0.00,0,weatherlink.com 1.10,2013-07-11 07:48:00,
2013-07-11 01:03:00,49.3,47.0,29.94,South,181,0.0,0.0,93,0.00,,,0.00,0,weatherlink.com 1.10,2013-07-11 08:03:00,
2013-07-11 01:18:00,49.5,48.0,29.93,South,181,0.0,2.0,93,0.00,,,0.00,0,weatherlink.com 1.10,2013-07-11 08:18:00,
2013-07-11 01:33:00,49.6,48.0,29.93,SSW,209,0.0,3.0,94,0.00,,,0.00,0,weatherlink.com 1.10,2013-07-11 08:33:00,
2013-07-11 01:48:00,49.6,48.0,29.93,SSW,209,0.0,1.0,94,0.00,,,0.00,0,weatherlink.com 1.10,2013-07-11 08:48:00,
2013-07-11 02:03:00,49.5,48.0,29.93,SSW,209,0.0,2.0,93,0.00,,,0.00,0,weatherlink.com 1.10,2013-07-11 09:03:00,
2013-07-11 02:18:00,49.4,48.0,29.93,WSW,240,0.0,3.0,93,0.00,,,0.00,0,weatherlink.com 1.10,2013-07-11 09:18:00,
2013-07-11 02:33:00,49.3,47.0,29.93,WSW,240,0.0,2.0,93,0.00,,,0.00,0,weatherlink.com 1.10,2013-07-11 09:33:00,
2013-07-11 02:48:00,49.4,48.0,29.93,WSW,240,0.0,1.0,93,0.00,,,0.00,0,weatherlink.com 1.10,2013-07-11 09:48:00,
2013-07-11 03:04:00,49.5,48.0,29.93,WSW,240,0.0,1.0,93,0.00,,,0.00,0,weatherlink.com 1.10,2013-07-11 10:04:00,
2013-07-11 03:19:00,49.5,48.0,29.92,WSW,240,0.0,1.0,93,0.00,,,0.00,0,weatherlink.com 1.10,2013-07-11 10:19:00,
2013-07-11 03:34:00,49.5,48.0,29.92,WSW,240,0.0,0.0,93,0.00,,,0.00,0,weatherlink.com 1.10,2013-07-11 10:34:00,
2013-07-11 03:49:00,49.5,48.0,29.92,WSW,240,0.0,2.0,93,0.00,,,0.00,0,weatherlink.com 1.10,2013-07-11 10:49:00,
2013-07-11 04:04:00,49.5,48.0,29.92,WSW,240,0.0,1.0,94,0.00,,,0.00,0,weatherlink.com 1.10,2013-07-11 11:04:00,
2013-07-11 04:19:00,49.4,48.0,29.92,WSW,240,0.0,1.0,93,0.00,,,0.00,0,weatherlink.com 1.10,2013-07-11 11:19:00,
2013-07-11 04:34:00,49.4,48.0,29.92,WSW,240,0.0,0.0,94,0.00,,,0.00,0,weatherlink.com 1.10,2013-07-11 11:34:00,
2013-07-11 04:49:00,49.4,48.0,29.92,WSW,240,0.0,1.0,94,0.00,,,0.00,0,weatherlink.com 1.10,2013-07-11 11:49:00,
2013-07-11 05:04:00,49.4,48.0,29.92,WSW,240,0.0,1.0,94,0.00,,,0.00,0,weatherlink.com 1.10,2013-07-11 12:04:00,
2013-07-11 05:19:00,49.2,48.0,29.92,WSW,240,0.0,1.0,94,0.00,,,0.00,0,weatherlink.com 1.10,2013-07-11 12:19:00,
2013-07-11 05:34:00,49.1,48.0,29.92,WSW,240,0.0,1.0,94,0.00,,,0.00,0,weatherlink.com 1.10,2013-07-11 12:34:00,
2013-07-11 05:49:00,49.2,48.0,29.93,WSW,240,0.0,1.0,94,0.00,,,0.00,0,weatherlink.com 1.10,2013-07-11 12:49:00,
2013-07-11 06:04:00,49.3,48.0,29.93,WSW,240,0.0,0.0,94,0.00,,,0.00,0,weatherlink.com 1.10,2013-07-11 13:04:00,
2013-07-11 06:19:00,49.3,48.0,29.93,SSW,213,0.0,1.0,94,0.00,,,0.00,11,weatherlink.com 1.10,2013-07-11 13:19:00,
2013-07-11 06:34:00,49.4,48.0,29.94,SSW,200,0.0,0.0,94,0.00,,,0.00,19,weatherlink.com 1.10,2013-07-11 13:34:00,
2013-07-11 06:49:00,49.5,48.0,29.94,SSE,148,0.0,1.0,94,0.00,,,0.00,26,weatherlink.com 1.10,2013-07-11 13:49:00,
2013-07-11 07:04:00,49.6,48.0,29.94,WSW,243,0.0,2.0,94,0.00,,,0.00,35,weatherlink.com 1.10,2013-07-11 14:04:00,
2013-07-11 07:19:00,49.6,48.0,29.94,WSW,243,0.0,1.0,94,0.00,,,0.00,46,weatherlink.com 1.10,2013-07-11 14:19:00,
2013-07-11 07:34:00,49.7,48.0,29.94,WSW,243,0.0,0.0,94,0.00,,,0.00,63,weatherlink.com 1.10,2013-07-11 14:34:00,
2013-07-11 07:49:00,50.2,49.0,29.95,ESE,119,0.0,0.0,94,0.00,,,0.00,76,weatherlink.com 1.10,2013-07-11 14:49:00,
2013-07-11 08:04:00,50.6,49.0,29.95,WSW,246,2.0,3.0,95,0.00,,,0.00,102,weatherlink.com 1.10,2013-07-11 15:04:00,
2013-07-11 08:19:00,50.7,49.0,29.95,WSW,246,0.0,2.0,94,0.00,,,0.00,123,weatherlink.com 1.10,2013-07-11 15:19:00,
2013-07-11 08:49:00,51.9,50.0,29.95,North,355,0.0,2.0,94,0.00,,,0.00,185,weatherlink.com 1.10,2013-07-11 15:49:00,
2013-07-11 09:04:00,52.7,51.0,29.95,ESE,117,0.0,3.0,93,0.00,,,0.00,213,weatherlink.com 1.10,2013-07-11 16:04:00,
2013-07-11 09:19:00,54.1,51.0,29.95,ESE,117,0.0,3.0,90,0.00,,,0.00,253,weatherlink.com 1.10,2013-07-11 16:19:00,
2013-07-11 10:05:00,56.6,52.0,29.94,SSW,207,2.0,5.0,84,0.00,,,0.00,332,weatherlink.com 1.10,2013-07-11 17:05:00,
2013-07-11 10:35:00,59.3,55.0,29.94,SE,141,0.0,3.0,84,0.00,,,0.00,417,weatherlink.com 1.10,2013-07-11 17:35:00,
2013-07-11 10:50:00,59.7,54.0,29.94,SSE,158,3.0,9.0,81,0.00,,,0.00,568,weatherlink.com 1.10,2013-07-11 17:50:00,
2013-07-11 11:05:00,60.0,54.0,29.93,SE,128,4.0,11.0,80,0.00,,,0.00,557,weatherlink.com 1.10,2013-07-11 18:05:00,
2013-07-11 11:20:00,62.3,55.0,29.93,SSW,210,4.0,8.0,78,0.00,,,0.00,840,weatherlink.com 1.10,2013-07-11 18:20:00,
2013-07-11 11:35:00,62.7,55.0,29.93,SW,234,4.0,7.0,77,0.00,,,0.00,838,weatherlink.com 1.10,2013-07-11 18:35:00,
2013-07-11 11:50:00,64.0,56.0,29.93,SW,229,2.0,11.0,75,0.00,,,0.00,858,weatherlink.com 1.10,2013-07-11 18:50:00,
2013-07-11 12:20:00,64.9,56.0,29.93,South,180,4.0,8.0,73,0.00,,,0.00,889,weatherlink.com 1.10,2013-07-11 19:20:00,
2013-07-11 12:35:00,65.8,57.0,29.92,SSW,196,4.0,8.0,73,0.00,,,0.00,905,weatherlink.com 1.10,2013-07-11 19:35:00,
2013-07-11 13:05:00,68.1,57.0,29.92,SSE,167,6.0,9.0,68,0.00,,,0.00,919,weatherlink.com 1.10,2013-07-11 20:05:00,
2013-07-11 13:35:00,70.8,58.0,29.91,SE,124,9.0,9.0,64,0.00,,,0.00,921,weatherlink.com 1.10,2013-07-11 20:35:00,
2013-07-11 13:50:00,70.7,59.0,29.91,ENE,68,0.0,12.0,66,0.00,,,0.00,919,weatherlink.com 1.10,2013-07-11 20:50:00,
2013-07-11 14:05:00,71.5,59.0,29.90,SSE,150,0.0,11.0,66,0.00,,,0.00,907,weatherlink.com 1.10,2013-07-11 21:05:00,
2013-07-11 14:20:00,72.0,59.0,29.90,SSW,200,9.0,9.0,64,0.00,,,0.00,896,weatherlink.com 1.10,2013-07-11 21:20:00,
2013-07-11 14:35:00,73.3,59.0,29.89,SW,217,6.0,11.0,61,0.00,,,0.00,886,weatherlink.com 1.10,2013-07-11 21:35:00,
2013-07-11 14:50:00,73.8,58.0,29.89,SW,234,3.0,8.0,59,0.00,,,0.00,867,weatherlink.com 1.10,2013-07-11 21:50:00,
2013-07-11 15:05:00,74.7,60.0,29.88,SW,217,1.0,8.0,60,0.00,,,0.00,847,weatherlink.com 1.10,2013-07-11 22:05:00,
2013-07-11 15:21:00,74.6,59.0,29.88,SW,228,3.0,9.0,58,0.00,,,0.00,821,weatherlink.com 1.10,2013-07-11 22:21:00,
2013-07-11 15:35:00,72.9,58.0,29.88,SSE,147,3.0,10.0,60,0.00,,,0.00,796,weatherlink.com 1.10,2013-07-11 22:35:00,
2013-07-11 15:50:00,73.3,58.0,29.88,SSW,207,4.0,10.0,60,0.00,,,0.00,766,weatherlink.com 1.10,2013-07-11 22:50:00,
2013-07-11 16:05:00,72.1,58.0,29.87,WSW,238,2.0,10.0,61,0.00,,,0.00,731,weatherlink.com 1.10,2013-07-11 23:05:00,
2013-07-11 16:20:00,73.8,58.0,29.87,SW,232,6.0,7.0,58,0.00,,,0.00,698,weatherlink.com 1.10,2013-07-11 23:20:00,
2013-07-11 16:51:00,71.8,56.0,29.86,SSW,200,1.0,12.0,58,0.00,,,0.00,622,weatherlink.com 1.10,2013-07-11 23:51:00,
2013-07-11 17:06:00,70.4,56.0,29.86,SW,227,5.0,11.0,61,0.00,,,0.00,578,weatherlink.com 1.10,2013-07-12 00:06:00,
2013-07-11 17:36:00,68.8,56.0,29.86,SSW,204,6.0,12.0,63,0.00,,,0.00,492,weatherlink.com 1.10,2013-07-12 00:36:00,
2013-07-11 17:51:00,68.4,56.0,29.85,South,185,0.0,11.0,64,0.00,,,0.00,448,weatherlink.com 1.10,2013-07-12 00:51:00,
2013-07-11 18:06:00,67.3,55.0,29.85,South,184,1.0,8.0,65,0.00,,,0.00,403,weatherlink.com 1.10,2013-07-12 01:06:00,
2013-07-11 18:36:00,66.3,55.0,29.85,SSE,167,7.0,11.0,67,0.00,,,0.00,309,weatherlink.com 1.10,2013-07-12 01:36:00,
2013-07-11 18:51:00,64.3,54.0,29.85,South,186,4.0,11.0,70,0.00,,,0.00,262,weatherlink.com 1.10,2013-07-12 01:51:00,
2013-07-11 19:06:00,62.7,54.0,29.85,SW,228,4.0,11.0,72,0.00,,,0.00,216,weatherlink.com 1.10,2013-07-12 02:06:00,
2013-07-11 19:21:00,61.0,53.0,29.86,SW,232,5.0,12.0,75,0.00,,,0.00,165,weatherlink.com 1.10,2013-07-12 02:21:00,
2013-07-11 19:36:00,59.7,53.0,29.86,SE,141,5.0,11.0,78,0.00,,,0.00,113,weatherlink.com 1.10,2013-07-12 02:36:00,
2013-07-11 19:51:00,59.0,53.0,29.86,South,173,5.0,11.0,80,0.00,,,0.00,69,weatherlink.com 1.10,2013-07-12 02:51:00,
2013-07-11 20:06:00,58.2,52.0,29.86,SE,126,0.0,6.0,81,0.00,,,0.00,33,weatherlink.com 1.10,2013-07-12 03:06:00,
2013-07-11 20:36:00,55.1,51.0,29.86,SSW,201,6.0,8.0,85,0.00,,,0.00,0,weatherlink.com 1.10,2013-07-12 03:36:00,
2013-07-11 20:51:00,54.0,50.0,29.87,South,178,0.0,5.0,87,0.00,,,0.00,0,weatherlink.com 1.10,2013-07-12 03:51:00,
2013-07-11 21:06:00,53.4,50.0,29.87,SSE,154,1.0,3.0,89,0.00,,,0.00,0,weatherlink.com 1.10,2013-07-12 04:06:00,
2013-07-11 21:21:00,52.9,50.0,29.88,SSW,205,0.0,2.0,90,0.00,,,0.00,0,weatherlink.com 1.10,2013-07-12 04:21:00,
2013-07-11 21:36:00,52.5,50.0,29.88,SSE,168,0.0,2.0,90,0.00,,,0.00,0,weatherlink.com 1.10,2013-07-12 04:36:00,
2013-07-11 21:51:00,52.3,50.0,29.89,SSE,168,0.0,3.0,91,0.00,,,0.00,0,weatherlink.com 1.10,2013-07-12 04:51:00,
2013-07-11 22:06:00,52.0,50.0,29.90,SW,217,0.0,3.0,92,0.00,,,0.00,0,weatherlink.com 1.10,2013-07-12 05:06:00,
2013-07-11 22:21:00,51.7,50.0,29.90,SW,217,0.0,1.0,92,0.00,,,0.00,0,weatherlink.com 1.10,2013-07-12 05:21:00,
2013-07-11 22:36:00,51.6,49.0,29.90,SW,217,0.0,1.0,92,0.00,,,0.00,0,weatherlink.com 1.10,2013-07-12 05:36:00,
2013-07-11 22:51:00,51.6,49.0,29.91,SW,217,0.0,0.0,92,0.00,,,0.00,0,weatherlink.com 1.10,2013-07-12 05:51:00,
2013-07-11 23:06:00,52.1,50.0,29.91,SW,217,0.0,1.0,93,0.00,,,0.00,0,weatherlink.com 1.10,2013-07-12 06:06:00,
2013-07-11 23:21:00,52.4,51.0,29.91,SW,217,0.0,0.0,93,0.00,,,0.00,0,weatherlink.com 1.10,2013-07-12 06:21:00,
2013-07-11 23:36:00,52.6,51.0,29.91,SW,217,0.0,1.0,93,0.00,,,0.00,0,weatherlink.com 1.10,2013-07-12 06:36:00,
2013-07-11 23:51:00,52.6,51.0,29.91,SSW,192,0.0,3.0,93,0.00,,,0.00,0,weatherlink.com 1.10,2013-07-12 06:51:00,